Terminal Aerodrome Forecast
Issued by NWS

Home | Current Version | Previous Version | Text Only | Print | Product List | Glossary On
Versions: 1 2 3 4 5 6 7 8 9 10 11 12 13 14 15 16 17 18 19 20 21 22 23 24 25 26 27
000
FTUS45 KGJT 010540
TAFEGE
TAF
KEGE 010540Z 0106/0206 10005KT P6SM FEW110 BKN200
     FM010900 00000KT P6SM FEW110 SCT200
     FM012000 23007KT P6SM VCTS SCT090CB BKN140
      TEMPO 0121/0201 VRB15G25KT -TSRA BKN070CB
     FM020200 16005KT P6SM VCSH SCT070 BKN100
      AMD LTD TO CLD VIS AND WIND TIL 011300=

USA.gov is the U.S. government's official web portal to all federal, state and local government web resources and services.